Time;durP1;ratioP1;P1;durP2;ratioP2;P2;SDS_P1;SDS_P2;PMS_P1;PMS_P2;Temp;Humidity;BMP_temperature;BMP_pressure;BME280_temperature;BME280_humidity;BME280_pressure;Samples;Min_cycle;Max_cycle;Signal;HPM_P1;HPM_P2
2023/07/29 00:01:59;;;;;;;11.15;8.70;;;18.70;99.90;;;;;;5098832;28;20117;-56
2023/07/29 00:04:25;;;;;;;12.63;9.02;;;18.60;99.90;;;;;;5098804;28;20044;-56
2023/07/29 00:06:50;;;;;;;10.73;9.00;;;18.60;99.90;;;;;;5098567;28;20055;-57
2023/07/29 00:09:16;;;;;;;11.38;7.88;;;18.50;99.90;;;;;;5096542;28;20514;-57
2023/07/29 00:11:42;;;;;;;8.85;7.65;;;18.50;99.90;;;;;;5099522;28;20028;-56
2023/07/29 00:14:07;;;;;;;8.43;7.55;;;18.50;99.90;;;;;;5097603;28;20040;-57
2023/07/29 00:16:33;;;;;;;8.75;7.47;;;18.50;99.90;;;;;;5100207;28;20052;-57
2023/07/29 00:18:59;;;;;;;10.98;7.90;;;18.40;99.90;;;;;;5098229;28;20036;-57
2023/07/29 00:21:24;;;;;;;10.07;8.48;;;18.40;99.90;;;;;;5099037;28;20043;-57
2023/07/29 00:23:50;;;;;;;7.63;6.93;;;18.40;99.90;;;;;;5098061;28;20047;-57
2023/07/29 00:26:16;;;;;;;9.50;7.80;;;18.40;99.90;;;;;;5097790;28;20036;-57
2023/07/29 00:28:41;;;;;;;10.77;7.47;;;18.40;99.90;;;;;;5099395;28;20071;-58
2023/07/29 00:31:07;;;;;;;12.00;7.55;;;18.40;99.90;;;;;;5096390;28;20055;-58
2023/07/29 00:33:33;;;;;;;10.98;6.95;;;18.40;99.90;;;;;;5099902;28;20047;-57
2023/07/29 00:36:01;;;;;;;10.43;6.93;;;18.40;99.90;;;;;;5097934;28;20041;-57
2023/07/29 00:38:27;;;;;;;9.55;7.25;;;18.30;99.90;;;;;;5098869;28;20149;-57
2023/07/29 00:40:53;;;;;;;8.70;7.75;;;18.30;99.90;;;;;;5099085;28;20048;-57
2023/07/29 00:43:19;;;;;;;8.25;7.30;;;18.30;99.90;;;;;;5097320;28;20056;-57
2023/07/29 00:45:46;;;;;;;10.88;7.68;;;18.30;99.90;;;;;;5099443;28;20040;-57
2023/07/29 00:48:12;;;;;;;10.70;7.10;;;18.30;99.90;;;;;;5097413;28;20048;-57
2023/07/29 00:50:38;;;;;;;10.98;7.70;;;18.20;99.90;;;;;;5099718;28;20508;-57
2023/07/29 00:53:04;;;;;;;10.55;7.28;;;18.20;99.90;;;;;;5096163;28;20032;-57
2023/07/29 00:55:30;;;;;;;14.98;7.47;;;18.20;99.90;;;;;;5101617;28;20036;-57
2023/07/29 00:57:56;;;;;;;8.00;6.68;;;18.20;99.90;;;;;;5102255;28;20051;-57
2023/07/29 01:00:22;;;;;;;9.18;7.07;;;18.10;99.90;;;;;;5101416;28;20171;-57
2023/07/29 01:02:48;;;;;;;9.70;7.53;;;18.10;99.90;;;;;;5102709;28;20051;-56
2023/07/29 01:05:16;;;;;;;13.00;7.35;;;18.10;99.90;;;;;;5100807;28;20050;-57
2023/07/29 01:07:54;;;;;;;9.23;6.97;;;18.10;99.90;;;;;;5103158;28;20028;-57
2023/07/29 01:10:39;;;;;;;10.02;7.50;;;18.00;99.90;;;;;;5101160;28;20044;-57
2023/07/29 01:13:16;;;;;;;9.95;7.07;;;18.00;99.90;;;;;;5099779;28;20063;-58
2023/07/29 01:16:17;;;;;;;10.68;6.75;;;18.00;99.90;;;;;;5102807;28;20051;-57
2023/07/29 01:18:45;;;;;;;7.57;6.22;;;18.00;99.90;;;;;;5089809;28;20060;-57
2023/07/29 01:21:12;;;;;;;8.75;6.40;;;17.90;99.90;;;;;;5101251;28;20055;-57
2023/07/29 01:23:38;;;;;;;8.95;5.90;;;17.90;99.90;;;;;;5084157;28;20055;-57
2023/07/29 01:26:04;;;;;;;10.70;5.82;;;17.90;99.90;;;;;;5100761;28;20044;-57
2023/07/29 01:28:31;;;;;;;7.95;5.82;;;17.90;99.90;;;;;;5102326;28;20046;-57
2023/07/29 01:31:12;;;;;;;6.85;5.60;;;17.80;99.90;;;;;;5100559;28;20040;-57
2023/07/29 01:33:45;;;;;;;7.72;5.80;;;17.80;99.90;;;;;;5102710;28;20660;-57
2023/07/29 01:36:22;;;;;;;7.50;5.47;;;17.80;99.90;;;;;;5100900;28;20063;-56
2023/07/29 01:38:49;;;;;;;10.90;5.97;;;17.80;99.90;;;;;;5101136;28;20044;-57
2023/07/29 01:41:17;;;;;;;7.45;5.40;;;17.80;99.90;;;;;;5101654;28;20048;-57
2023/07/29 01:43:43;;;;;;;8.43;5.28;;;17.80;99.90;;;;;;5098667;28;20601;-57
2023/07/29 01:46:13;;;;;;;7.28;5.50;;;17.80;99.90;;;;;;5102131;28;20491;-57
2023/07/29 01:48:39;;;;;;;6.15;5.45;;;17.80;99.90;;;;;;5100146;28;20103;-57
2023/07/29 01:51:05;;;;;;;9.45;5.22;;;17.80;99.90;;;;;;5102171;28;20088;-57
2023/07/29 01:53:31;;;;;;;8.90;5.63;;;17.80;99.90;;;;;;5101180;28;20040;-57
2023/07/29 01:55:57;;;;;;;7.65;4.97;;;17.80;99.90;;;;;;5100495;28;20504;-57
2023/07/29 01:58:23;;;;;;;6.15;4.82;;;17.80;99.90;;;;;;5101629;28;20119;-57
2023/07/29 02:00:49;;;;;;;7.43;5.03;;;17.80;99.90;;;;;;5099964;28;20115;-57
2023/07/29 02:03:14;;;;;;;7.05;5.07;;;17.80;99.90;;;;;;5101886;28;20055;-57
2023/07/29 02:05:42;;;;;;;5.55;4.38;;;17.80;99.90;;;;;;5098684;28;20249;-57
2023/07/29 02:08:07;;;;;;;11.68;4.60;;;17.80;99.90;;;;;;5101499;28;20040;-58
2023/07/29 02:10:33;;;;;;;5.55;4.78;;;17.80;99.90;;;;;;5100547;28;20052;-57
2023/07/29 02:12:59;;;;;;;8.82;4.85;;;17.80;99.90;;;;;;5100299;28;20039;-57
2023/07/29 02:15:24;;;;;;;5.65;4.13;;;17.80;99.90;;;;;;5101585;28;20044;-57
2023/07/29 02:17:51;;;;;;;6.75;4.50;;;17.80;99.90;;;;;;5099676;28;20123;-58
2023/07/29 02:20:17;;;;;;;10.65;5.03;;;17.80;99.90;;;;;;5101526;28;20040;-57
2023/07/29 02:22:43;;;;;;;4.78;4.05;;;17.80;99.90;;;;;;5099215;28;20051;-57
2023/07/29 02:25:09;;;;;;;7.88;4.93;;;17.80;99.90;;;;;;5101623;28;20403;-57
2023/07/29 02:27:35;;;;;;;7.10;4.40;;;17.80;99.90;;;;;;5099853;28;20055;-57
2023/07/29 02:30:02;;;;;;;5.72;4.03;;;17.80;99.90;;;;;;5082157;28;20048;-57
2023/07/29 02:32:27;;;;;;;7.28;4.28;;;17.80;99.90;;;;;;5101029;28;20044;-57
2023/07/29 02:34:53;;;;;;;6.85;4.70;;;17.80;99.90;;;;;;5099341;28;20119;-57
2023/07/29 02:37:19;;;;;;;5.88;4.28;;;17.80;99.90;;;;;;5101279;28;20040;-57
2023/07/29 02:39:45;;;;;;;7.65;4.70;;;17.80;99.90;;;;;;5097368;28;20059;-57
2023/07/29 02:42:11;;;;;;;6.38;4.40;;;17.80;99.90;;;;;;5101242;28;20041;-57
2023/07/29 02:44:37;;;;;;;7.18;4.35;;;17.80;99.90;;;;;;5099635;28;20047;-57
2023/07/29 02:47:03;;;;;;;6.32;4.00;;;17.80;99.90;;;;;;5100301;28;20223;-57
2023/07/29 02:49:29;;;;;;;7.20;4.43;;;17.70;99.90;;;;;;5100841;28;20071;-57
2023/07/29 02:51:54;;;;;;;6.28;4.30;;;17.70;99.90;;;;;;5098866;28;20126;-57
2023/07/29 02:54:20;;;;;;;7.18;4.82;;;17.70;99.90;;;;;;5100891;28;20079;-57
2023/07/29 02:56:46;;;;;;;6.80;4.35;;;17.70;99.90;;;;;;5097347;28;20043;-58
2023/07/29 02:59:11;;;;;;;6.13;3.90;;;17.70;99.90;;;;;;5101214;28;20166;-57
2023/07/29 03:01:37;;;;;;;6.40;3.72;;;17.70;99.90;;;;;;5098946;28;20036;-57
2023/07/29 03:04:03;;;;;;;5.05;3.92;;;17.60;99.90;;;;;;5100312;28;20047;-57
2023/07/29 03:06:29;;;;;;;6.65;3.75;;;17.60;99.90;;;;;;5100052;28;20059;-56
2023/07/29 03:08:54;;;;;;;5.45;3.75;;;17.60;99.90;;;;;;5098983;28;20066;-58
2023/07/29 03:11:20;;;;;;;6.00;4.07;;;17.50;99.90;;;;;;5100146;28;20108;-58
2023/07/29 03:13:46;;;;;;;5.97;3.65;;;17.50;99.90;;;;;;5098577;28;20036;-57
2023/07/29 03:16:12;;;;;;;6.63;3.72;;;17.50;99.90;;;;;;5100642;28;20051;-58
2023/07/29 03:18:38;;;;;;;6.32;4.05;;;17.50;99.90;;;;;;5098086;28;20040;-57
2023/07/29 03:21:04;;;;;;;5.25;3.58;;;17.50;99.90;;;;;;5100369;28;20028;-57
2023/07/29 03:23:32;;;;;;;5.57;3.58;;;17.50;99.90;;;;;;5099727;28;20047;-56
2023/07/29 03:25:59;;;;;;;7.78;3.40;;;17.40;99.90;;;;;;5098543;28;20075;-57
2023/07/29 03:28:29;;;;;;;4.95;3.70;;;17.40;99.90;;;;;;5100211;28;20864;-57
2023/07/29 03:30:55;;;;;;;5.95;3.38;;;17.40;99.90;;;;;;5098278;28;20044;-57
2023/07/29 03:33:21;;;;;;;7.25;3.70;;;17.40;99.90;;;;;;5100379;28;20040;-56
2023/07/29 03:35:47;;;;;;;6.45;3.33;;;17.40;99.90;;;;;;5098425;28;20119;-57
2023/07/29 03:38:13;;;;;;;5.00;3.38;;;17.40;99.90;;;;;;5098790;28;20056;-57
2023/07/29 03:40:39;;;;;;;6.38;3.72;;;17.40;99.90;;;;;;5099049;28;20650;-57
2023/07/29 03:43:05;;;;;;;4.03;3.17;;;17.40;99.90;;;;;;5098469;28;20137;-57
2023/07/29 03:45:31;;;;;;;4.97;3.22;;;17.30;99.90;;;;;;5099858;28;20052;-57
2023/07/29 03:47:57;;;;;;;4.07;3.22;;;17.30;99.90;;;;;;5096625;28;20071;-57
2023/07/29 03:50:23;;;;;;;5.15;3.15;;;17.30;99.90;;;;;;5100158;28;20059;-57
2023/07/29 03:52:48;;;;;;;8.35;3.55;;;17.30;99.90;;;;;;5097883;28;20043;-57
2023/07/29 03:55:14;;;;;;;5.43;3.13;;;17.30;99.90;;;;;;5098795;28;20111;-57
2023/07/29 03:57:40;;;;;;;7.30;3.50;;;17.30;99.90;;;;;;5099141;28;20076;-56
2023/07/29 04:00:06;;;;;;;7.15;3.55;;;17.30;99.90;;;;;;5098840;28;20040;-57
2023/07/29 04:02:31;;;;;;;4.93;2.80;;;17.30;99.90;;;;;;5099684;28;20051;-57
2023/07/29 04:04:57;;;;;;;5.05;2.85;;;17.30;99.90;;;;;;5097930;28;20437;-57
2023/07/29 04:07:23;;;;;;;4.55;2.80;;;17.30;99.90;;;;;;5099748;28;20118;-57
2023/07/29 04:09:49;;;;;;;8.13;3.42;;;17.30;99.90;;;;;;5097813;28;20035;-58
2023/07/29 04:12:15;;;;;;;5.32;3.28;;;17.20;99.90;;;;;;5099775;28;20037;-57
2023/07/29 04:14:41;;;;;;;4.53;2.75;;;17.20;99.90;;;;;;5097219;28;20472;-57
2023/07/29 04:17:07;;;;;;;6.60;3.05;;;17.20;99.90;;;;;;5097707;28;20039;-55
2023/07/29 04:19:33;;;;;;;7.53;3.13;;;17.20;99.90;;;;;;5099673;28;20499;-57
2023/07/29 04:21:59;;;;;;;5.80;3.33;;;17.20;99.90;;;;;;5097589;28;20055;-57
2023/07/29 04:24:25;;;;;;;5.25;3.08;;;17.20;99.90;;;;;;5099740;28;20051;-57
2023/07/29 04:26:51;;;;;;;6.88;3.20;;;17.10;99.90;;;;;;5097589;28;20047;-56
2023/07/29 04:29:16;;;;;;;5.30;3.15;;;17.10;99.90;;;;;;5099152;28;20512;-57
2023/07/29 04:31:42;;;;;;;6.35;3.15;;;17.10;99.90;;;;;;5102035;28;20088;-56
2023/07/29 04:34:08;;;;;;;5.30;3.10;;;17.10;99.90;;;;;;5102857;28;20047;-57
2023/07/29 04:36:34;;;;;;;6.63;3.13;;;17.10;99.90;;;;;;5103132;28;20044;-57
2023/07/29 04:39:00;;;;;;;4.43;3.20;;;17.10;99.90;;;;;;5101766;28;20042;-57
2023/07/29 04:41:26;;;;;;;6.45;3.13;;;17.10;99.90;;;;;;5102886;28;20131;-57
2023/07/29 04:43:52;;;;;;;5.32;3.15;;;17.10;99.90;;;;;;5101384;28;20079;-58
2023/07/29 04:46:18;;;;;;;8.23;3.60;;;17.10;99.90;;;;;;5103720;28;20040;-58
2023/07/29 04:48:43;;;;;;;5.78;4.00;;;17.10;99.90;;;;;;5101613;28;20381;-57
2023/07/29 04:51:09;;;;;;;9.63;3.92;;;17.10;99.90;;;;;;5101485;28;20047;-58
2023/07/29 04:53:36;;;;;;;7.43;3.92;;;17.10;99.90;;;;;;5102740;28;20058;-57
2023/07/29 04:56:03;;;;;;;9.00;3.92;;;17.10;99.90;;;;;;5101657;28;20455;-58
2023/07/29 04:58:29;;;;;;;7.50;3.53;;;17.10;99.90;;;;;;5103249;28;20115;-57
2023/07/29 05:00:56;;;;;;;9.55;4.20;;;17.10;99.90;;;;;;5101290;28;20182;-57
2023/07/29 05:03:21;;;;;;;8.63;4.18;;;17.20;99.90;;;;;;5103435;28;20388;-56
2023/07/29 05:05:47;;;;;;;7.93;4.43;;;17.20;99.90;;;;;;5100943;28;20044;-56
2023/07/29 05:08:13;;;;;;;11.50;4.72;;;17.20;99.90;;;;;;5102727;28;20119;-57
2023/07/29 05:10:38;;;;;;;7.97;4.70;;;17.20;99.90;;;;;;5102238;28;20040;-57
2023/07/29 05:13:04;;;;;;;9.10;4.85;;;17.20;99.90;;;;;;5101034;28;20476;-55
2023/07/29 05:15:30;;;;;;;11.98;5.80;;;17.20;99.90;;;;;;5102640;28;20512;-57
2023/07/29 05:17:56;;;;;;;13.45;5.90;;;17.20;99.90;;;;;;5099523;28;20044;-57
2023/07/29 05:20:21;;;;;;;9.82;5.55;;;17.30;99.90;;;;;;5102653;28;20049;-57
2023/07/29 05:22:47;;;;;;;10.02;5.72;;;17.30;99.90;;;;;;5100585;28;20044;-57
2023/07/29 05:25:13;;;;;;;7.90;5.63;;;17.30;99.90;;;;;;5101229;28;20095;-57
2023/07/29 05:27:38;;;;;;;10.43;6.15;;;17.30;99.90;;;;;;5101506;28;20649;-57
2023/07/29 05:30:06;;;;;;;12.32;6.38;;;17.30;99.90;;;;;;5101305;28;20170;-57
2023/07/29 05:32:32;;;;;;;13.65;6.10;;;17.30;99.90;;;;;;5102295;28;20048;-58
2023/07/29 05:34:57;;;;;;;13.20;6.05;;;17.30;99.90;;;;;;5100344;28;20040;-57
2023/07/29 05:37:23;;;;;;;11.20;6.07;;;17.50;99.90;;;;;;5101151;28;20079;-57
2023/07/29 05:39:49;;;;;;;10.27;6.30;;;17.30;99.90;;;;;;5098737;28;20060;-57
2023/07/29 05:42:14;;;;;;;12.68;6.32;;;17.40;99.90;;;;;;5102260;28;20055;-57
2023/07/29 05:44:40;;;;;;;15.40;7.43;;;17.40;99.90;;;;;;5100931;28;20048;-56
2023/07/29 05:47:06;;;;;;;16.38;6.60;;;17.40;99.90;;;;;;5099964;28;20042;-57
2023/07/29 05:49:32;;;;;;;13.93;6.68;;;17.40;99.90;;;;;;5101676;28;20044;-57
2023/07/29 05:51:58;;;;;;;10.88;6.28;;;17.40;99.90;;;;;;5100018;28;20090;-57
2023/07/29 05:54:23;;;;;;;15.48;6.93;;;17.50;99.90;;;;;;5102034;28;20055;-56
2023/07/29 05:56:49;;;;;;;13.35;6.20;;;17.40;99.90;;;;;;5099749;28;20047;-57
2023/07/29 05:59:14;;;;;;;9.55;6.47;;;17.40;99.90;;;;;;5102056;28;20112;-56
2023/07/29 06:01:40;;;;;;;14.23;7.05;;;17.40;99.90;;;;;;5100393;28;20051;-57
2023/07/29 06:04:06;;;;;;;14.27;6.82;;;17.40;99.90;;;;;;5099646;28;20472;-57
2023/07/29 06:06:32;;;;;;;12.23;6.68;;;17.50;99.90;;;;;;5100248;28;20052;-57
2023/07/29 06:08:58;;;;;;;13.13;6.75;;;17.60;99.90;;;;;;5099860;28;20078;-58
2023/07/29 06:11:23;;;;;;;14.90;6.80;;;17.60;99.90;;;;;;5101430;28;20052;-56
2023/07/29 06:13:49;;;;;;;9.65;6.22;;;17.70;99.90;;;;;;5099514;28;20047;-57
2023/07/29 06:16:15;;;;;;;10.95;6.55;;;17.80;99.90;;;;;;5100565;28;20496;-57
2023/07/29 06:18:40;;;;;;;10.88;6.68;;;17.80;99.90;;;;;;5099681;28;20048;-56
2023/07/29 06:21:07;;;;;;;12.50;6.60;;;17.90;99.90;;;;;;5101268;28;20047;-57
2023/07/29 06:23:34;;;;;;;11.07;7.10;;;17.90;99.90;;;;;;5101012;28;20073;-57
2023/07/29 06:26:00;;;;;;;14.35;7.05;;;17.90;99.90;;;;;;5098204;28;20048;-57
2023/07/29 06:28:26;;;;;;;13.68;6.38;;;18.00;99.90;;;;;;5101506;28;20033;-58
2023/07/29 06:30:52;;;;;;;15.18;7.15;;;17.90;99.90;;;;;;5099385;28;20189;-57
2023/07/29 06:33:18;;;;;;;16.55;6.10;;;18.00;99.90;;;;;;5099909;28;20040;-57
2023/07/29 06:35:44;;;;;;;15.50;6.45;;;18.10;99.90;;;;;;5099417;28;20071;-57
2023/07/29 06:38:09;;;;;;;11.55;6.28;;;18.10;99.90;;;;;;5101139;28;20036;-57
2023/07/29 06:40:35;;;;;;;10.15;6.07;;;18.10;99.90;;;;;;5098794;28;20040;-57
2023/07/29 06:43:01;;;;;;;11.00;6.00;;;18.10;99.90;;;;;;5097966;28;20083;-59
2023/07/29 06:45:26;;;;;;;11.82;6.10;;;18.10;99.90;;;;;;5100666;28;20062;-57
2023/07/29 06:47:52;;;;;;;10.05;5.80;;;18.10;99.90;;;;;;5098709;28;20093;-57
2023/07/29 06:50:18;;;;;;;11.65;6.28;;;18.10;99.90;;;;;;5101137;28;20093;-57
2023/07/29 06:52:45;;;;;;;10.45;6.28;;;18.10;99.90;;;;;;5098362;28;20103;-57
2023/07/29 06:55:11;;;;;;;10.63;5.97;;;18.20;99.90;;;;;;5100948;28;20055;-57
2023/07/29 06:57:36;;;;;;;8.82;5.47;;;18.20;99.90;;;;;;5099798;28;20047;-57
2023/07/29 07:00:03;;;;;;;12.73;6.00;;;18.30;99.90;;;;;;5099535;28;20601;-56
2023/07/29 07:02:29;;;;;;;11.30;6.13;;;18.40;99.90;;;;;;5100441;28;20041;-57
2023/07/29 07:04:54;;;;;;;9.20;5.85;;;18.50;99.90;;;;;;5098792;28;20442;-57
2023/07/29 07:07:20;;;;;;;10.38;5.80;;;18.70;99.90;;;;;;5100743;28;20246;-57
2023/07/29 07:09:46;;;;;;;11.55;5.50;;;19.00;99.90;;;;;;5098448;28;20044;-58
2023/07/29 07:12:11;;;;;;;10.15;5.93;;;19.20;99.90;;;;;;5100441;28;20032;-57
2023/07/29 07:14:37;;;;;;;9.63;5.65;;;19.30;99.90;;;;;;5097822;28;20052;-57
2023/07/29 07:17:03;;;;;;;8.27;5.32;;;19.40;99.90;;;;;;5099598;28;20060;-57
2023/07/29 07:19:29;;;;;;;9.32;4.90;;;19.40;99.90;;;;;;5100232;28;20043;-58
2023/07/29 07:21:54;;;;;;;8.98;5.85;;;19.40;99.90;;;;;;5098368;28;20040;-57
2023/07/29 07:24:20;;;;;;;8.55;4.90;;;19.30;99.90;;;;;;5100177;28;20093;-57
2023/07/29 07:26:46;;;;;;;10.57;5.60;;;19.20;99.90;;;;;;5098011;28;20036;-57
2023/07/29 07:29:11;;;;;;;8.27;5.00;;;19.10;99.90;;;;;;5100617;28;20044;-57
2023/07/29 07:31:37;;;;;;;15.15;6.57;;;19.20;99.90;;;;;;5097121;28;20051;-57
2023/07/29 07:34:03;;;;;;;10.52;5.50;;;19.10;99.90;;;;;;5099734;28;20078;-57
2023/07/29 07:36:30;;;;;;;8.23;5.82;;;19.10;99.90;;;;;;5100011;28;20040;-57
2023/07/29 07:38:56;;;;;;;10.75;5.43;;;19.10;99.90;;;;;;5097014;28;20051;-57
2023/07/29 07:41:22;;;;;;;8.77;5.40;;;19.10;99.90;;;;;;5099631;28;20077;-57
2023/07/29 07:43:47;;;;;;;9.70;5.00;;;19.20;99.90;;;;;;5098008;28;20067;-57
2023/07/29 07:46:13;;;;;;;9.55;5.18;;;19.30;99.90;;;;;;5100101;28;20067;-57
2023/07/29 07:48:39;;;;;;;8.23;4.55;;;19.30;99.90;;;;;;5098237;28;20123;-57
2023/07/29 07:51:12;;;;;;;9.07;5.00;;;19.50;99.90;;;;;;5099606;28;20032;-58
2023/07/29 07:53:38;;;;;;;10.30;4.60;;;19.70;99.90;;;;;;5099784;28;20048;-57
2023/07/29 07:56:03;;;;;;;11.07;4.78;;;20.00;99.90;;;;;;5098270;28;20052;-58
2023/07/29 07:58:29;;;;;;;8.20;4.03;;;20.10;99.90;;;;;;5100156;28;20383;-58
2023/07/29 08:01:02;;;;;;;10.40;3.70;;;20.10;99.90;;;;;;5096343;28;20047;-59
2023/07/29 08:03:28;;;;;;;9.20;3.70;;;20.10;99.90;;;;;;5100219;28;20054;-57
2023/07/29 08:05:53;;;;;;;5.25;3.17;;;20.10;99.90;;;;;;5101682;28;20079;-57
2023/07/29 08:08:19;;;;;;;6.32;3.13;;;20.30;99.90;;;;;;5103427;28;20040;-58
2023/07/29 08:10:45;;;;;;;7.07;3.63;;;20.40;99.90;;;;;;5102374;28;20487;-58
2023/07/29 08:13:10;;;;;;;6.65;3.47;;;20.40;99.90;;;;;;5101714;28;20413;-57
2023/07/29 08:15:36;;;;;;;7.07;3.15;;;20.40;99.90;;;;;;5103870;28;20046;-58
2023/07/29 08:18:02;;;;;;;6.60;3.40;;;20.50;99.90;;;;;;5101976;28;20040;-57
2023/07/29 08:20:27;;;;;;;7.72;3.10;;;20.40;99.90;;;;;;5104287;28;20131;-58
2023/07/29 08:22:53;;;;;;;7.60;3.60;;;20.30;99.90;;;;;;5102266;28;20046;-57
2023/07/29 08:25:19;;;;;;;6.32;3.17;;;20.30;99.90;;;;;;5103287;28;20050;-57
2023/07/29 08:27:44;;;;;;;8.38;3.28;;;20.30;99.90;;;;;;5103177;28;20561;-57
2023/07/29 08:30:10;;;;;;;7.25;3.03;;;20.30;99.90;;;;;;5102130;28;20058;-58
2023/07/29 08:32:36;;;;;;;9.30;3.00;;;20.30;99.90;;;;;;5103386;28;20040;-58
2023/07/29 08:35:02;;;;;;;7.85;3.15;;;20.30;99.90;;;;;;5101749;28;20650;-58
2023/07/29 08:37:27;;;;;;;6.47;3.00;;;20.40;99.90;;;;;;5103849;28;20166;-57
2023/07/29 08:39:56;;;;;;;6.28;2.90;;;20.40;99.90;;;;;;5101488;28;20624;-56
2023/07/29 08:42:27;;;;;;;8.40;3.10;;;20.50;99.90;;;;;;5101606;28;20044;-57
2023/07/29 08:44:54;;;;;;;7.88;3.20;;;20.50;99.90;;;;;;5101325;28;20047;-57
2023/07/29 08:47:20;;;;;;;7.72;3.00;;;20.60;99.90;;;;;;5100553;28;20040;-57
2023/07/29 08:49:47;;;;;;;8.45;3.10;;;20.80;99.90;;;;;;5103367;28;20051;-57
2023/07/29 08:52:14;;;;;;;6.38;2.90;;;21.00;99.90;;;;;;5101246;28;20047;-58
2023/07/29 08:54:40;;;;;;;8.82;2.90;;;21.00;99.90;;;;;;5103425;28;20044;-57
2023/07/29 08:57:07;;;;;;;7.28;3.40;;;21.10;99.90;;;;;;5101220;28;20035;-57
2023/07/29 08:59:33;;;;;;;5.28;2.85;;;21.10;99.90;;;;;;5102850;28;20058;-58
2023/07/29 09:01:59;;;;;;;6.43;2.33;;;21.10;99.90;;;;;;5102240;28;20067;-56
2023/07/29 09:04:25;;;;;;;6.45;2.60;;;21.10;99.90;;;;;;5101350;28;20047;-57
2023/07/29 09:06:51;;;;;;;6.00;2.80;;;21.10;99.90;;;;;;5102930;28;20052;-58
2023/07/29 09:09:17;;;;;;;6.57;2.63;;;21.20;99.90;;;;;;5100907;28;20055;-57
2023/07/29 09:11:43;;;;;;;6.07;2.40;;;21.30;99.90;;;;;;5102572;28;20035;-58
2023/07/29 09:14:10;;;;;;;7.18;2.60;;;21.40;99.90;;;;;;5100690;28;20047;-57
2023/07/29 09:16:37;;;;;;;4.10;2.10;;;21.60;99.90;;;;;;5102071;28;20036;-58
2023/07/29 09:19:03;;;;;;;5.97;2.28;;;21.70;99.90;;;;;;5101872;28;20055;-57
2023/07/29 09:21:29;;;;;;;9.90;2.45;;;21.80;99.90;;;;;;5101358;28;20089;-63
2023/07/29 09:23:55;;;;;;;5.40;2.22;;;21.80;99.90;;;;;;5102303;28;20047;-62
2023/07/29 09:26:26;;;;;;;7.55;2.40;;;21.80;99.90;;;;;;5100417;28;20032;-62
2023/07/29 09:28:53;;;;;;;5.38;2.58;;;21.80;99.90;;;;;;5102759;28;20040;-62
2023/07/29 09:31:24;;;;;;;6.95;2.55;;;21.70;99.90;;;;;;5099077;28;20041;-61
2023/07/29 09:33:50;;;;;;;5.78;2.72;;;21.90;99.90;;;;;;5100778;28;20047;-62
2023/07/29 09:36:16;;;;;;;5.50;2.17;;;22.00;99.90;;;;;;5101594;28;20066;-61
2023/07/29 09:38:42;;;;;;;6.13;2.65;;;22.10;99.90;;;;;;5100832;28;20032;-64
2023/07/29 09:41:13;;;;;;;5.75;2.95;;;22.20;99.90;;;;;;5102062;28;20080;-61
2023/07/29 09:43:39;;;;;;;10.75;3.22;;;22.10;99.90;;;;;;5100308;28;20063;-61
2023/07/29 09:46:08;;;;;;;6.57;2.80;;;22.00;99.90;;;;;;5102543;28;20032;-61
2023/07/29 09:48:38;;;;;;;4.70;2.92;;;21.80;99.90;;;;;;5100349;28;20044;-62
2023/07/29 09:51:13;;;;;;;5.93;2.92;;;21.80;99.90;;;;;;5101495;28;20585;-63
2023/07/29 09:53:46;;;;;;;8.60;3.28;;;21.80;99.90;;;;;;5101923;28;20056;-63
2023/07/29 09:56:13;;;;;;;5.65;2.85;;;21.70;99.90;;;;;;5099900;28;20052;-63
2023/07/29 09:58:39;;;;;;;5.63;2.30;;;21.70;99.90;;;;;;5101772;28;20070;-62
2023/07/29 10:01:06;;;;;;;4.28;2.92;;;21.70;99.90;;;;;;5099528;28;20040;-63
2023/07/29 10:03:33;;;;;;;5.97;3.22;;;21.50;99.90;;;;;;5102107;28;20044;-62
2023/07/29 10:06:06;;;;;;;7.15;4.18;;;21.40;99.90;;;;;;5100363;28;20081;-62
2023/07/29 10:08:35;;;;;;;6.82;4.10;;;21.30;99.90;;;;;;5098945;28;20146;-62
2023/07/29 10:11:11;;;;;;;6.97;4.10;;;21.30;99.90;;;;;;5101158;28;20040;-62
2023/07/29 10:13:38;;;;;;;7.53;4.30;;;21.40;99.90;;;;;;5099217;28;20040;-62
2023/07/29 10:16:04;;;;;;;6.15;4.05;;;21.40;99.90;;;;;;5101444;28;20485;-61
2023/07/29 10:18:31;;;;;;;6.97;4.28;;;21.50;99.90;;;;;;5099647;28;20603;-61
2023/07/29 10:20:59;;;;;;;5.50;4.40;;;21.60;99.90;;;;;;5082822;28;20072;-63
2023/07/29 10:23:27;;;;;;;8.00;5.28;;;21.60;99.90;;;;;;5101022;28;20416;-63
2023/07/29 10:26:13;;;;;;;7.18;4.85;;;21.60;99.90;;;;;;5099637;28;20555;-63
2023/07/29 10:28:47;;;;;;;7.72;4.45;;;21.40;99.90;;;;;;5100535;28;20040;-63
2023/07/29 10:31:17;;;;;;;9.52;4.45;;;21.30;99.90;;;;;;5099372;28;20059;-62
2023/07/29 10:33:44;;;;;;;7.70;4.15;;;21.20;99.90;;;;;;5101021;28;20044;-62
2023/07/29 10:36:10;;;;;;;5.47;3.50;;;21.10;99.90;;;;;;5100451;28;20044;-64
2023/07/29 10:38:35;;;;;;;6.15;3.53;;;21.10;99.90;;;;;;5099617;28;20069;-62
2023/07/29 10:41:01;;;;;;;4.10;3.13;;;21.00;99.90;;;;;;5100670;28;20115;-62
2023/07/29 10:43:32;;;;;;;5.90;2.67;;;21.00;99.90;;;;;;5098627;28;20052;-61
2023/07/29 10:46:16;;;;;;;5.85;3.08;;;21.00;99.90;;;;;;5100975;28;20048;-62
2023/07/29 10:48:44;;;;;;;8.52;3.05;;;21.10;99.90;;;;;;5099398;28;20431;-61
2023/07/29 10:51:36;;;;;;;6.05;2.85;;;21.20;99.90;;;;;;5100212;28;20093;-63
2023/07/29 10:54:09;;;;;;;8.90;2.92;;;21.40;99.90;;;;;;5093909;28;20109;-61
2023/07/29 10:56:36;;;;;;;7.45;2.90;;;21.50;99.90;;;;;;5098648;28;20960;-61
2023/07/29 10:59:32;;;;;;;6.97;2.90;;;21.40;99.90;;;;;;5101144;28;20054;-61
2023/07/29 11:01:59;;;;;;;5.20;2.80;;;21.40;99.90;;;;;;5094915;28;20047;-63
2023/07/29 11:04:30;;;;;;;5.45;2.40;;;21.30;99.90;;;;;;5098863;28;20551;-61
2023/07/29 11:07:07;;;;;;;6.53;2.38;;;21.20;99.90;;;;;;5100341;28;20040;-63
2023/07/29 11:09:52;;;;;;;9.13;2.38;;;21.20;99.90;;;;;;5098323;28;20048;-64
2023/07/29 11:12:45;;;;;;;5.30;2.25;;;21.30;99.90;;;;;;5100041;28;20188;-64
2023/07/29 11:15:11;;;;;;;4.88;2.08;;;21.30;99.90;;;;;;5100212;28;20048;-63
2023/07/29 11:17:40;;;;;;;5.20;2.30;;;21.30;99.90;;;;;;5098565;28;20092;-63
2023/07/29 11:20:09;;;;;;;6.97;2.30;;;21.30;99.90;;;;;;5100532;28;20102;-63
2023/07/29 11:22:36;;;;;;;5.30;2.40;;;21.40;99.90;;;;;;5098210;28;20040;-63
2023/07/29 11:25:02;;;;;;;6.65;2.40;;;21.50;99.90;;;;;;5098878;28;20102;-63
2023/07/29 11:27:28;;;;;;;5.68;2.40;;;21.60;99.90;;;;;;5099384;28;20307;-61
2023/07/29 11:29:58;;;;;;;5.72;2.30;;;21.70;99.90;;;;;;5099046;28;20070;-63
2023/07/29 11:32:25;;;;;;;5.72;2.80;;;21.80;99.90;;;;;;5098644;28;20040;-62
2023/07/29 11:34:50;;;;;;;4.57;2.33;;;21.90;99.90;;;;;;5098246;28;20097;-62
2023/07/29 11:37:17;;;;;;;3.85;1.98;;;22.00;99.90;;;;;;5100132;28;20048;-62
2023/07/29 11:39:45;;;;;;;4.43;2.30;;;22.00;99.90;;;;;;5097482;28;20036;-62
2023/07/29 11:42:11;;;;;;;6.22;2.42;;;22.00;99.90;;;;;;5100159;28;20044;-63
2023/07/29 11:44:38;;;;;;;5.15;2.33;;;22.00;99.90;;;;;;5098948;28;20055;-62
2023/07/29 11:47:07;;;;;;;5.18;2.30;;;22.00;99.90;;;;;;5098579;28;20044;-62
2023/07/29 11:49:34;;;;;;;6.60;2.30;;;22.10;99.90;;;;;;5099612;28;20044;-63
2023/07/29 11:52:00;;;;;;;5.40;2.28;;;22.10;99.90;;;;;;5097771;28;20119;-63
2023/07/29 11:54:26;;;;;;;4.78;2.50;;;22.20;99.90;;;;;;5100013;28;20044;-63
2023/07/29 11:56:52;;;;;;;4.53;2.35;;;22.20;99.90;;;;;;5097631;28;20051;-62
2023/07/29 11:59:19;;;;;;;8.93;2.75;;;22.30;99.90;;;;;;5100074;28;20040;-63
2023/07/29 12:01:45;;;;;;;4.25;2.30;;;22.30;99.90;;;;;;5098825;28;20036;-62
2023/07/29 12:04:11;;;;;;;4.55;2.30;;;22.30;99.90;;;;;;5098584;28;20051;-62
2023/07/29 12:06:38;;;;;;;5.75;2.55;;;22.40;99.90;;;;;;5099278;28;20058;-62
2023/07/29 12:09:04;;;;;;;6.00;2.50;;;22.50;99.90;;;;;;5096612;28;20070;-62
2023/07/29 12:11:30;;;;;;;8.52;2.97;;;22.50;99.90;;;;;;5099605;28;20048;-61
2023/07/29 12:13:56;;;;;;;5.13;2.38;;;22.60;99.90;;;;;;5097453;28;20457;-63
2023/07/29 12:16:21;;;;;;;6.38;2.63;;;22.70;99.90;;;;;;5099957;28;20044;-61
2023/07/29 12:18:49;;;;;;;8.20;2.63;;;22.90;99.90;;;;;;5098561;28;20048;-63
2023/07/29 12:21:15;;;;;;;6.30;2.40;;;22.90;99.90;;;;;;5098614;28;20051;-62
2023/07/29 12:23:41;;;;;;;3.55;2.17;;;23.00;99.90;;;;;;5099652;28;20439;-61
2023/07/29 12:26:07;;;;;;;8.43;2.20;;;23.10;99.90;;;;;;5097775;28;20609;-61
2023/07/29 12:28:32;;;;;;;6.85;2.25;;;23.00;99.90;;;;;;5099714;28;20044;-61
2023/07/29 12:30:59;;;;;;;6.57;2.60;;;22.90;99.90;;;;;;5097587;28;20044;-61
2023/07/29 12:33:35;;;;;;;4.75;2.70;;;22.90;99.90;;;;;;5100069;28;20028;-61
2023/07/29 12:36:01;;;;;;;5.28;2.63;;;22.80;99.90;;;;;;5098847;28;20082;-61
2023/07/29 12:38:27;;;;;;;6.10;2.58;;;22.70;99.90;;;;;;5098269;28;20408;-63
2023/07/29 12:40:53;;;;;;;8.38;2.63;;;22.70;99.90;;;;;;5098992;28;20056;-63
2023/07/29 12:43:18;;;;;;;5.75;2.53;;;22.60;99.90;;;;;;5078983;28;20057;-62
2023/07/29 12:45:44;;;;;;;6.88;2.60;;;22.60;99.90;;;;;;5099514;28;20036;-62